createdAt,value
2022-11-15T00:02:39.932Z,98621.63
2022-11-15T00:05:26.360Z,98608.31
2022-11-15T00:08:14.317Z,98609.41
2022-11-15T00:11:03.619Z,98617.34
2022-11-15T00:13:50.323Z,98620.09
2022-11-15T00:16:36.582Z,98612.00
2022-11-15T00:19:23.131Z,98616.91
2022-11-15T00:22:09.781Z,98606.50
2022-11-15T00:24:57.537Z,98612.75
2022-11-15T00:27:44.065Z,98604.88
2022-11-15T00:30:30.844Z,98596.16
2022-11-15T00:33:17.252Z,98595.97
2022-11-15T00:36:05.578Z,98590.13
2022-11-15T00:38:52.243Z,98596.44
2022-11-15T00:41:40.002Z,98599.38
2022-11-15T00:44:26.554Z,98586.69
2022-11-15T00:47:13.216Z,98582.88
2022-11-15T00:50:00.038Z,98583.91
2022-11-15T00:52:46.934Z,98579.00
2022-11-15T00:55:33.550Z,98565.84
2022-11-15T00:58:21.715Z,98574.41
2022-11-15T01:01:09.827Z,98574.41
2022-11-15T01:04:01.298Z,98582.38
2022-11-15T01:06:48.423Z,98577.00
2022-11-15T01:09:34.948Z,98573.78
2022-11-15T01:12:21.527Z,98568.09
2022-11-15T01:15:10.444Z,98568.09
2022-11-15T01:17:57.004Z,98568.41
2022-11-15T01:20:43.938Z,98559.09
2022-11-15T01:23:30.485Z,98567.53
2022-11-15T01:26:17.815Z,98565.69
2022-11-15T01:29:04.717Z,98556.38
2022-11-15T01:31:52.630Z,98551.06
2022-11-15T01:34:39.207Z,98552.25
2022-11-15T01:37:25.799Z,98562.06
2022-11-15T01:40:12.920Z,98552.25
2022-11-15T01:42:59.716Z,98562.50
2022-11-15T01:45:48.487Z,98550.91
2022-11-15T01:48:37.511Z,98561.06
2022-11-15T01:51:28.165Z,98555.44
2022-11-15T01:54:18.459Z,98550.66
2022-11-15T01:57:09.233Z,98542.63
2022-11-15T01:59:56.546Z,98539.59
2022-11-15T02:02:43.785Z,98539.41
2022-11-15T02:05:32.647Z,98538.97
2022-11-15T02:08:21.820Z,98531.44
2022-11-15T02:11:10.453Z,98523.22
2022-11-15T02:13:57.830Z,98527.38
2022-11-15T02:16:54.997Z,98523.72
2022-11-15T02:20:03.063Z,98534.56
2022-11-15T02:23:08.517Z,98530.38
2022-11-15T02:26:08.632Z,98522.34
2022-11-15T02:29:03.871Z,98522.94
2022-11-15T02:31:58.064Z,98523.59
2022-11-15T02:34:53.388Z,98513.19
2022-11-15T02:37:47.546Z,98506.59
2022-11-15T02:40:43.867Z,98507.34
2022-11-15T02:43:57.319Z,98503.72
2022-11-15T02:47:17.305Z,98511.19
2022-11-15T02:50:10.602Z,98505.53
2022-11-15T02:52:57.800Z,98500.63
2022-11-15T02:55:49.432Z,98503.94
2022-11-15T02:59:02.731Z,98501.53
2022-11-15T03:02:02.015Z,98501.09
2022-11-15T03:04:55.732Z,98495.06
2022-11-15T03:07:55.845Z,98487.44
2022-11-15T03:10:56.115Z,98487.78
2022-11-15T03:13:49.013Z,98476.50
2022-11-15T03:16:39.871Z,98480.19
2022-11-15T03:19:33.224Z,98474.94
2022-11-15T03:22:23.422Z,98479.88
2022-11-15T03:25:15.445Z,98482.97
2022-11-15T03:28:05.719Z,98476.09
2022-11-15T03:30:54.385Z,98481.88
2022-11-15T03:33:42.173Z,98465.88
2022-11-15T03:36:29.459Z,98466.41
2022-11-15T03:39:20.387Z,98457.25
2022-11-15T03:42:17.798Z,98467.66
2022-11-15T03:45:13.041Z,98461.06
2022-11-15T03:48:04.584Z,98459.88
2022-11-15T03:50:51.665Z,98452.09
2022-11-15T03:53:38.237Z,98451.16
2022-11-15T03:56:24.640Z,98444.53
2022-11-15T03:59:12.457Z,98439.31
2022-11-15T04:01:59.043Z,98439.69
2022-11-15T04:04:45.572Z,98432.97
2022-11-15T04:07:32.192Z,98432.69
2022-11-15T04:10:19.362Z,98428.03
2022-11-15T04:13:05.846Z,98417.66
2022-11-15T04:15:53.697Z,98419.06
2022-11-15T04:18:40.118Z,98410.72
2022-11-15T04:21:44.036Z,98407.44
2022-11-15T04:24:30.157Z,98400.41
2022-11-15T04:27:16.916Z,98396.00
2022-11-15T04:30:03.409Z,98385.31
2022-11-15T04:32:51.187Z,98388.28
2022-11-15T04:35:37.844Z,98390.13
2022-11-15T04:38:23.377Z,98388.09
2022-11-15T04:41:09.770Z,98385.03
2022-11-15T04:43:56.375Z,98387.94
2022-11-15T04:46:42.905Z,98373.75
2022-11-15T04:49:30.695Z,98380.97
2022-11-15T04:52:17.240Z,98381.75
2022-11-15T04:55:08.142Z,98382.13
2022-11-15T04:58:01.938Z,98381.81
2022-11-15T05:00:48.416Z,98378.00
2022-11-15T05:03:57.756Z,98370.41
2022-11-15T05:06:45.606Z,98361.41
2022-11-15T05:09:32.174Z,98360.66
2022-11-15T05:12:18.738Z,98354.69
2022-11-15T05:15:06.026Z,98361.72
2022-11-15T05:17:52.482Z,98355.59
2022-11-15T05:20:39.232Z,98365.34
2022-11-15T05:23:27.242Z,98354.81
2022-11-15T05:26:18.565Z,98357.69
2022-11-15T05:29:05.023Z,98357.06
2022-11-15T05:31:51.901Z,98346.25
2022-11-15T05:34:38.871Z,98349.94
2022-11-15T05:37:25.001Z,98350.41
2022-11-15T05:40:12.970Z,98340.28
2022-11-15T05:43:02.052Z,98339.81
2022-11-15T05:45:48.785Z,98335.53
2022-11-15T05:48:37.131Z,98346.66
2022-11-15T05:51:24.881Z,98353.41
2022-11-15T05:54:12.701Z,98353.06
2022-11-15T05:57:00.998Z,98354.56
2022-11-15T05:59:47.694Z,98357.00
2022-11-15T06:02:34.423Z,98346.97
2022-11-15T06:05:20.792Z,98346.69
2022-11-15T06:08:07.075Z,98338.88
2022-11-15T06:10:53.905Z,98349.72
2022-11-15T06:13:41.754Z,98337.53
2022-11-15T06:16:28.324Z,98329.44
2022-11-15T06:19:14.789Z,98332.19
2022-11-15T06:22:01.410Z,98333.72
2022-11-15T06:24:47.837Z,98336.94
2022-11-15T06:27:34.450Z,98333.44
2022-11-15T06:30:23.011Z,98331.31
2022-11-15T06:33:10.629Z,98323.81
2022-11-15T06:35:56.796Z,98335.09
2022-11-15T06:38:43.491Z,98329.13
2022-11-15T06:41:30.102Z,98337.91
2022-11-15T06:44:17.467Z,98334.78
2022-11-15T06:47:05.486Z,98337.97
2022-11-15T06:49:52.282Z,98330.31
2022-11-15T06:52:38.667Z,98339.22
2022-11-15T06:55:25.342Z,98332.22
2022-11-15T06:58:11.762Z,98332.84
2022-11-15T07:01:01.391Z,98340.97
2022-11-15T07:03:49.386Z,98332.34
2022-11-15T07:06:36.040Z,98336.28
2022-11-15T07:09:22.687Z,98331.16
2022-11-15T07:12:09.223Z,98326.66
2022-11-15T07:14:55.716Z,98345.25
2022-11-15T07:17:42.152Z,98342.25
2022-11-15T07:20:30.094Z,98336.94
2022-11-15T07:23:16.532Z,98334.81
2022-11-15T07:26:02.880Z,98334.72
2022-11-15T07:28:49.684Z,98329.78
2022-11-15T07:31:36.548Z,98324.59
2022-11-15T07:34:23.207Z,98319.25
2022-11-15T07:37:11.180Z,98313.94
2022-11-15T07:39:57.850Z,98315.78
2022-11-15T07:42:56.992Z,98318.34
2022-11-15T07:45:44.982Z,98318.38
2022-11-15T07:48:42.660Z,98321.13
2022-11-15T07:51:30.859Z,98314.88
2022-11-15T07:54:18.697Z,98317.16
2022-11-15T07:57:07.517Z,98313.53
2022-11-15T07:59:54.263Z,98308.78
2022-11-15T08:02:41.591Z,98308.50
2022-11-15T08:05:28.425Z,98301.19
2022-11-15T08:08:14.924Z,98300.72
2022-11-15T08:11:02.976Z,98292.78
2022-11-15T08:13:49.774Z,98292.66
2022-11-15T08:16:36.365Z,98294.78
2022-11-15T08:19:23.110Z,98299.06
2022-11-15T08:22:09.507Z,98297.22
2022-11-15T08:24:56.300Z,98297.81
2022-11-15T08:27:44.216Z,98290.63
2022-11-15T08:30:31.166Z,98290.63
2022-11-15T08:33:17.739Z,98282.22
2022-11-15T08:36:04.311Z,98289.38
2022-11-15T08:38:50.811Z,98279.84
2022-11-15T08:41:39.395Z,98285.22
2022-11-15T08:44:27.321Z,98285.56
2022-11-15T08:47:14.767Z,98280.03
2022-11-15T08:50:01.643Z,98282.75
2022-11-15T08:52:49.291Z,98286.19
2022-11-15T08:55:39.065Z,98283.78
2022-11-15T08:58:25.799Z,98287.75
2022-11-15T09:01:19.617Z,98278.03
2022-11-15T09:04:06.456Z,98274.41
2022-11-15T09:06:53.010Z,98277.22
2022-11-15T09:09:40.110Z,98278.75
2022-11-15T09:12:26.811Z,98272.44
2022-11-15T09:15:13.412Z,98279.38
2022-11-15T09:18:01.800Z,98258.59
2022-11-15T09:20:48.793Z,98263.69
2022-11-15T09:23:35.552Z,98264.41
2022-11-15T09:26:21.964Z,98255.56
2022-11-15T09:29:08.567Z,98256.34
2022-11-15T09:31:55.023Z,98256.38
2022-11-15T09:34:42.782Z,98246.56
2022-11-15T09:37:29.285Z,98240.34
2022-11-15T09:40:20.396Z,98240.75
2022-11-15T09:43:31.025Z,98242.22
2022-11-15T09:46:24.348Z,98243.38
2022-11-15T09:49:16.921Z,98246.56
2022-11-15T09:51:53.553Z,98237.56
2022-11-15T09:57:22.527Z,98236.22
2022-11-15T10:00:38.692Z,98220.63
2022-11-15T10:03:10.601Z,98229.91
2022-11-15T10:05:41.714Z,98221.50
2022-11-15T10:08:23.775Z,98213.66
2022-11-15T10:11:15.918Z,98209.41
2022-11-15T10:13:45.107Z,98203.69
2022-11-15T10:16:34.392Z,98194.44
2022-11-15T10:19:12.126Z,98201.94
2022-11-15T10:21:52.836Z,98200.53
2022-11-15T10:24:29.163Z,98191.78
2022-11-15T10:26:58.097Z,98187.78
2022-11-15T10:29:27.512Z,98190.63
2022-11-15T10:31:55.753Z,98179.81
2022-11-15T10:34:26.019Z,98184.75
2022-11-15T10:36:58.389Z,98167.84
2022-11-15T10:39:28.425Z,98170.56
2022-11-15T10:41:58.012Z,98163.06
2022-11-15T10:44:28.572Z,98158.31
2022-11-15T10:47:25.370Z,98153.41
2022-11-15T10:50:29.381Z,98154.03
2022-11-15T10:52:57.481Z,98144.31
2022-11-15T10:55:30.050Z,98139.50
2022-11-15T10:58:04.269Z,98145.16
2022-11-15T11:00:36.622Z,98136.25
2022-11-15T11:03:08.207Z,98125.84
2022-11-15T11:05:42.285Z,98125.50
2022-11-15T11:08:25.438Z,98119.47
2022-11-15T11:11:02.497Z,98121.91
2022-11-15T11:13:32.829Z,98115.09
2022-11-15T11:16:22.056Z,98110.88
2022-11-15T11:18:59.218Z,98112.38
2022-11-15T11:21:39.781Z,98116.63
2022-11-15T11:24:16.299Z,98108.63
2022-11-15T11:26:56.810Z,98098.97
2022-11-15T11:29:36.923Z,98095.38
2022-11-15T11:32:19.862Z,98094.06
2022-11-15T11:34:56.710Z,98095.16
2022-11-15T11:37:32.935Z,98094.00
2022-11-15T11:40:15.362Z,98093.91
2022-11-15T11:43:00.213Z,98088.78
2022-11-15T11:45:47.724Z,98079.94
2022-11-15T11:48:23.019Z,98081.09
2022-11-15T11:50:51.658Z,98075.66
2022-11-15T11:53:28.896Z,98061.25
2022-11-15T11:56:01.040Z,98063.13
2022-11-15T11:58:37.013Z,98054.88
2022-11-15T12:01:13.690Z,98056.63
2022-11-15T12:03:45.907Z,98056.00
2022-11-15T12:06:26.051Z,98040.13
2022-11-15T12:08:58.596Z,98039.72
2022-11-15T12:11:34.960Z,98037.81
2022-11-15T12:14:12.545Z,98035.56
2022-11-15T12:16:45.115Z,98030.03
2022-11-15T12:19:13.058Z,98036.41
2022-11-15T12:21:47.970Z,98036.78
2022-11-15T12:24:22.261Z,98030.59
2022-11-15T12:26:54.801Z,98028.69
2022-11-15T12:29:30.138Z,98032.56
2022-11-15T12:32:00.989Z,98029.03
2022-11-15T12:34:42.394Z,98025.16
2022-11-15T12:37:35.175Z,98034.28
2022-11-15T12:40:20.307Z,98028.66
2022-11-15T12:43:20.604Z,98022.63
2022-11-15T12:45:49.956Z,98024.16
2022-11-15T12:48:57.456Z,98020.13
2022-11-15T12:52:07.533Z,98015.53
2022-11-15T12:54:56.740Z,98012.53
2022-11-15T12:57:45.535Z,98009.91
2022-11-15T13:00:49.298Z,98008.28
2022-11-15T13:03:36.602Z,98004.13
2022-11-15T13:06:11.299Z,98003.47
2022-11-15T13:08:50.735Z,98010.47
2022-11-15T13:11:51.501Z,97999.72
2022-11-15T13:14:42.622Z,98002.66
2022-11-15T13:17:30.782Z,97994.81
2022-11-15T13:20:23.468Z,97992.31
2022-11-15T13:22:55.654Z,97988.56
2022-11-15T13:25:48.987Z,97983.56
2022-11-15T13:28:24.101Z,97985.09
2022-11-15T13:30:54.530Z,97985.06
2022-11-15T13:33:25.448Z,97989.88
2022-11-15T13:35:58.438Z,97983.34
2022-11-15T13:38:32.656Z,97988.88
2022-11-15T13:41:02.004Z,97976.03
2022-11-15T13:43:37.753Z,97973.53
2022-11-15T13:46:12.514Z,97970.50
2022-11-15T13:48:41.300Z,97968.25
2022-11-15T13:51:16.823Z,97974.28
2022-11-15T13:53:49.186Z,97958.91
2022-11-15T13:56:18.943Z,97956.91
2022-11-15T13:58:49.050Z,97958.16
2022-11-15T14:01:20.848Z,97955.91
2022-11-15T14:03:52.994Z,97945.31
2022-11-15T14:06:25.403Z,97943.28
2022-11-15T14:09:26.592Z,97949.09
2022-11-15T14:11:56.234Z,97952.59
2022-11-15T14:14:25.767Z,97947.06
2022-11-15T14:16:56.176Z,97943.56
2022-11-15T14:19:41.914Z,97951.09
2022-11-15T14:22:16.564Z,97945.06
2022-11-15T14:24:46.664Z,97935.75
2022-11-15T14:27:26.019Z,97938.78
2022-11-15T14:29:54.170Z,97936.75
2022-11-15T14:32:24.128Z,97938.53
2022-11-15T14:34:56.798Z,97931.97
2022-11-15T14:37:27.864Z,97922.91
2022-11-15T14:39:56.433Z,97927.44
2022-11-15T14:42:25.465Z,97924.44
2022-11-15T14:44:54.217Z,97926.69
2022-11-15T14:47:22.405Z,97925.44
2022-11-15T14:49:50.678Z,97913.88
2022-11-15T14:52:32.132Z,97914.63
2022-11-15T14:55:02.390Z,97907.06
2022-11-15T14:57:30.960Z,97917.16
2022-11-15T14:59:58.999Z,97903.53
2022-11-15T15:02:40.951Z,97909.81
2022-11-15T15:05:16.349Z,97908.56
2022-11-15T15:07:46.030Z,97908.53
2022-11-15T15:10:38.996Z,97904.94
2022-11-15T15:13:03.223Z,97903.66
2022-11-15T15:15:36.923Z,97909.28
2022-11-15T15:18:05.669Z,97899.19
2022-11-15T15:20:34.054Z,97897.72
2022-11-15T15:23:03.357Z,97891.31
2022-11-15T15:25:34.039Z,97894.13
2022-11-15T15:28:02.089Z,97884.63
2022-11-15T15:30:31.474Z,97901.53
2022-11-15T15:32:59.692Z,97888.16
2022-11-15T15:35:32.163Z,97886.16
2022-11-15T15:38:00.317Z,97883.91
2022-11-15T15:40:31.975Z,97882.41
2022-11-15T15:43:00.115Z,97883.41
2022-11-15T15:45:29.261Z,97891.69
2022-11-15T15:47:57.619Z,97882.91
2022-11-15T15:50:27.777Z,97885.16
2022-11-15T15:52:57.606Z,97884.94
2022-11-15T15:55:26.037Z,97884.41
2022-11-15T15:57:55.834Z,97879.13
2022-11-15T16:00:25.868Z,97882.06
2022-11-15T16:02:54.613Z,97882.28
2022-11-15T16:05:23.684Z,97882.81
2022-11-15T16:07:51.838Z,97873.31
2022-11-15T16:10:25.952Z,97879.88
2022-11-15T16:12:56.714Z,97877.09
2022-11-15T16:15:26.775Z,97878.81
2022-11-15T16:17:56.132Z,97876.06
2022-11-15T16:20:33.475Z,97876.09
2022-11-15T16:23:07.587Z,97866.53
2022-11-15T16:25:43.829Z,97873.59
2022-11-15T16:28:19.609Z,97869.81
2022-11-15T16:30:50.043Z,97864.78
2022-11-15T16:33:21.764Z,97867.81
2022-11-15T16:35:50.031Z,97869.06
2022-11-15T16:38:18.295Z,97872.56
2022-11-15T16:40:46.342Z,97855.22
2022-11-15T16:43:14.270Z,97856.22
2022-11-15T16:45:43.642Z,97857.25
2022-11-15T16:48:22.746Z,97852.72
2022-11-15T16:50:50.691Z,97853.22
2022-11-15T16:53:18.952Z,97851.69
2022-11-15T16:55:46.943Z,97854.22
2022-11-15T16:58:14.883Z,97854.97
2022-11-15T17:00:44.320Z,97853.22
2022-11-15T17:03:12.352Z,97844.66
2022-11-15T17:05:40.253Z,97844.66
2022-11-15T17:08:08.268Z,97838.59
2022-11-15T17:10:36.207Z,97840.53
2022-11-15T17:13:04.200Z,97836.50
2022-11-15T17:15:32.073Z,97841.13
2022-11-15T17:18:01.343Z,97838.72
2022-11-15T17:20:29.302Z,97833.41
2022-11-15T17:22:57.401Z,97830.13
2022-11-15T17:25:25.400Z,97821.63
2022-11-15T17:27:53.443Z,97831.25
2022-11-15T17:30:21.464Z,97820.47
2022-11-15T17:32:49.863Z,97822.72
2022-11-15T17:35:19.329Z,97814.69
2022-11-15T17:37:48.370Z,97820.50
2022-11-15T17:40:16.941Z,97817.22
2022-11-15T17:42:44.843Z,97817.72
2022-11-15T17:45:13.147Z,97815.41
2022-11-15T17:47:41.048Z,97823.28
2022-11-15T17:50:10.711Z,97817.22
2022-11-15T17:52:39.933Z,97810.69
2022-11-15T17:55:08.449Z,97815.47
2022-11-15T17:57:36.390Z,97805.91
2022-11-15T18:00:06.322Z,97801.38
2022-11-15T18:02:34.354Z,97807.66
2022-11-15T18:05:03.336Z,97794.81
2022-11-15T18:07:31.354Z,97795.28
2022-11-15T18:10:00.658Z,97798.63
2022-11-15T18:12:28.631Z,97787.53
2022-11-15T18:14:56.570Z,97784.50
2022-11-15T18:17:24.567Z,97786.56
2022-11-15T18:19:52.473Z,97781.97
2022-11-15T18:22:20.614Z,97784.00
2022-11-15T18:24:48.558Z,97777.22
2022-11-15T18:27:17.821Z,97778.72
2022-11-15T18:29:45.715Z,97771.91
2022-11-15T18:32:15.358Z,97777.47
2022-11-15T18:34:43.290Z,97771.97
2022-11-15T18:37:11.372Z,97768.94
2022-11-15T18:39:39.289Z,97772.97
2022-11-15T18:42:07.277Z,97773.44
2022-11-15T18:44:36.668Z,97767.44
2022-11-15T18:47:04.743Z,97767.94
2022-11-15T18:49:32.680Z,97757.34
2022-11-15T18:52:00.579Z,97760.88
2022-11-15T18:54:31.448Z,97760.13
2022-11-15T18:57:00.149Z,97761.13
2022-11-15T18:59:29.008Z,97757.88
2022-11-15T19:01:58.354Z,97755.38
2022-11-15T19:04:26.369Z,97755.88
2022-11-15T19:06:54.512Z,97752.34
2022-11-15T19:09:22.443Z,97753.84
2022-11-15T19:11:51.746Z,97754.84
2022-11-15T19:14:24.235Z,97750.84
2022-11-15T19:16:53.182Z,97745.78
2022-11-15T19:19:24.515Z,97746.56
2022-11-15T19:21:52.958Z,97742.00
2022-11-15T19:24:21.108Z,97745.78
2022-11-15T19:26:56.039Z,97748.56
2022-11-15T19:29:24.916Z,97744.53
2022-11-15T19:31:52.926Z,97748.81
2022-11-15T19:34:22.183Z,97749.31
2022-11-15T19:36:50.099Z,97731.94
2022-11-15T19:39:18.707Z,97734.75
2022-11-15T19:41:47.166Z,97733.22
2022-11-15T19:44:15.414Z,97736.75
2022-11-15T19:46:44.357Z,97725.91
2022-11-15T19:49:12.462Z,97734.97
2022-11-15T19:51:45.163Z,97735.22
2022-11-15T19:54:13.729Z,97719.88
2022-11-15T19:56:41.795Z,97722.41
2022-11-15T19:59:11.707Z,97721.91
2022-11-15T20:01:40.022Z,97721.16
2022-11-15T20:04:10.200Z,97717.38
2022-11-15T20:06:41.637Z,97716.88
2022-11-15T20:09:13.414Z,97711.59
2022-11-15T20:11:41.401Z,97707.81
2022-11-15T20:14:11.670Z,97703.31
2022-11-15T20:16:40.175Z,97701.03
2022-11-15T20:19:08.897Z,97702.81
2022-11-15T20:21:37.205Z,97706.31
2022-11-15T20:24:05.914Z,97704.03
2022-11-15T20:26:35.714Z,97702.03
2022-11-15T20:29:04.049Z,97699.53
2022-11-15T20:31:32.758Z,97704.06
2022-11-15T20:34:01.167Z,97705.31
2022-11-15T20:36:29.783Z,97703.31
2022-11-15T20:38:59.363Z,97700.00
2022-11-15T20:41:28.230Z,97698.53
2022-11-15T20:43:57.644Z,97696.25
2022-11-15T20:46:25.630Z,97697.28
2022-11-15T20:48:53.494Z,97689.22
2022-11-15T20:51:21.821Z,97696.16
2022-11-15T20:53:49.871Z,97692.59
2022-11-15T20:56:20.238Z,97687.69
2022-11-15T20:58:50.451Z,97685.16
2022-11-15T21:01:23.774Z,97679.66
2022-11-15T21:03:52.898Z,97679.25
2022-11-15T21:06:21.282Z,97672.72
2022-11-15T21:09:07.506Z,97675.78
2022-11-15T21:11:53.342Z,97666.34
2022-11-15T21:14:21.576Z,97663.84
2022-11-15T21:16:50.874Z,97666.88
2022-11-15T21:19:22.654Z,97661.34
2022-11-15T21:21:53.723Z,97654.53
2022-11-15T21:24:22.286Z,97656.06
2022-11-15T21:26:50.256Z,97656.28
2022-11-15T21:29:18.197Z,97659.00
2022-11-15T21:31:46.720Z,97655.53
2022-11-15T21:34:16.416Z,97651.25
2022-11-15T21:36:45.003Z,97644.44
2022-11-15T21:39:12.907Z,97651.88
2022-11-15T21:41:40.879Z,97642.16
2022-11-15T21:44:08.838Z,97648.78
2022-11-15T21:46:37.354Z,97641.00
2022-11-15T21:49:06.998Z,97643.28
2022-11-15T21:51:36.463Z,97642.47
2022-11-15T21:54:04.694Z,97627.97
2022-11-15T21:56:32.782Z,97625.81
2022-11-15T21:59:01.268Z,97623.31
2022-11-15T22:01:47.298Z,97622.09
2022-11-15T22:04:15.786Z,97616.84
2022-11-15T22:06:45.061Z,97613.34
2022-11-15T22:09:13.184Z,97605.03
2022-11-15T22:11:41.265Z,97603.28
2022-11-15T22:14:09.489Z,97612.56
2022-11-15T22:16:37.797Z,97607.53
2022-11-15T22:19:05.993Z,97602.75
2022-11-15T22:21:34.047Z,97596.19
2022-11-15T22:24:03.603Z,97599.50
2022-11-15T22:26:31.565Z,97590.22
2022-11-15T22:28:59.640Z,97586.13
2022-11-15T22:31:27.662Z,97586.63
2022-11-15T22:33:55.700Z,97587.72
2022-11-15T22:36:26.218Z,97590.25
2022-11-15T22:38:58.398Z,97598.22
2022-11-15T22:41:27.680Z,97591.88
2022-11-15T22:43:55.664Z,97586.94
2022-11-15T22:46:23.633Z,97590.47
2022-11-15T22:48:51.597Z,97589.22
2022-11-15T22:51:19.531Z,97589.03
2022-11-15T22:53:47.615Z,97586.84
2022-11-15T22:56:20.157Z,97581.81
2022-11-15T22:58:49.690Z,97580.47
2022-11-15T23:01:22.249Z,97585.41
2022-11-15T23:03:50.325Z,97580.69
2022-11-15T23:06:18.404Z,97574.88
2022-11-15T23:08:46.368Z,97578.63
2022-11-15T23:11:31.824Z,97566.81
2022-11-15T23:14:01.199Z,97561.59
2022-11-15T23:16:35.372Z,97553.13
2022-11-15T23:19:06.015Z,97553.44
2022-11-15T23:21:52.766Z,97547.69
2022-11-15T23:24:21.489Z,97545.59
2022-11-15T23:26:52.024Z,97544.34
2022-11-15T23:32:09.845Z,97537.97
2022-11-15T23:34:39.798Z,97536.50
2022-11-15T23:37:09.165Z,97527.81
2022-11-15T23:39:37.211Z,97526.44
2022-11-15T23:42:09.106Z,97515.38
2022-11-15T23:44:38.934Z,97519.44
2022-11-15T23:47:06.944Z,97513.06
2022-11-15T23:49:34.900Z,97517.13
2022-11-15T23:52:02.836Z,97508.81
2022-11-15T23:54:31.065Z,97501.09
2022-11-15T23:56:59.023Z,97508.63
2022-11-15T23:59:26.970Z,97497.13
